createdAt,value
2022-08-11T00:00:33.151Z,16.82
2022-08-11T00:10:37.555Z,16.63
2022-08-11T00:20:44.549Z,16.42
2022-08-11T00:30:46.827Z,16.18
2022-08-11T00:41:10.418Z,15.97
2022-08-11T00:51:56.718Z,15.76
2022-08-11T01:02:11.996Z,15.55
2022-08-11T01:12:40.784Z,15.35
2022-08-11T01:22:42.911Z,15.15
2022-08-11T01:33:04.052Z,14.96
2022-08-11T01:43:46.515Z,14.81
2022-08-11T01:54:26.358Z,14.63
2022-08-11T02:04:34.224Z,14.46
2022-08-11T02:15:05.611Z,14.34
2022-08-11T02:25:22.255Z,14.20
2022-08-11T02:35:36.825Z,14.06
2022-08-11T02:46:18.410Z,13.88
2022-08-11T02:56:38.253Z,13.75
2022-08-11T03:06:59.446Z,13.61
2022-08-11T03:17:25.013Z,13.48
2022-08-11T03:27:30.975Z,13.36
2022-08-11T03:38:00.808Z,13.28
2022-08-11T03:48:21.630Z,13.14
2022-08-11T03:58:58.116Z,13.01
2022-08-11T04:09:37.663Z,12.88
2022-08-11T04:20:16.465Z,12.77
2022-08-11T04:30:59.470Z,12.68
2022-08-11T04:41:34.747Z,12.64
2022-08-11T04:52:37.472Z,12.64
2022-08-11T05:02:49.212Z,12.74
2022-08-11T05:13:17.930Z,12.90
2022-08-11T05:23:44.777Z,13.15
2022-08-11T05:34:15.924Z,13.47
2022-08-11T05:44:40.328Z,13.85
2022-08-11T05:55:06.017Z,14.35
2022-08-11T06:05:12.009Z,14.85
2022-08-11T06:15:15.110Z,15.37
2022-08-11T06:25:18.345Z,15.95
2022-08-11T06:36:00.305Z,16.52
2022-08-11T06:46:10.389Z,17.22
2022-08-11T06:56:35.676Z,17.87
2022-08-11T07:07:37.758Z,18.51
2022-08-11T07:18:15.710Z,19.15
2022-08-11T07:28:43.150Z,19.79
2022-08-11T07:38:53.049Z,20.31
2022-08-11T07:49:20.212Z,20.95
2022-08-11T08:00:00.561Z,21.71
2022-08-11T08:10:29.057Z,22.46
2022-08-11T08:20:36.332Z,23.09
2022-08-11T08:30:50.151Z,23.65
2022-08-11T08:40:56.485Z,24.12
2022-08-11T08:51:23.209Z,24.57
2022-08-11T09:01:43.341Z,24.89
2022-08-11T09:11:51.869Z,25.25
2022-08-11T09:22:16.160Z,25.64
2022-08-11T09:32:35.921Z,26.01
2022-08-11T09:42:59.548Z,26.22
2022-08-11T09:53:36.241Z,26.57
2022-08-11T10:03:54.434Z,26.92
2022-08-11T10:14:33.098Z,27.25
2022-08-11T10:25:00.190Z,27.59
2022-08-11T10:35:08.408Z,28.30
2022-08-11T10:45:30.382Z,28.59
2022-08-11T10:55:52.633Z,28.80
2022-08-11T11:06:27.464Z,29.27
2022-08-11T11:16:47.727Z,29.59
2022-08-11T11:27:21.313Z,29.90
2022-08-11T11:37:26.678Z,30.24
2022-08-11T11:47:32.324Z,30.55
2022-08-11T11:57:58.636Z,30.57
2022-08-11T12:08:13.464Z,30.81
2022-08-11T12:18:18.252Z,31.47
2022-08-11T12:28:25.796Z,31.95
2022-08-11T12:38:36.231Z,32.43
2022-08-11T12:49:06.401Z,32.60
2022-08-11T12:59:30.524Z,32.83
2022-08-11T13:09:34.814Z,33.59
2022-08-11T13:19:39.333Z,34.02
2022-08-11T13:29:49.760Z,34.20
2022-08-11T13:39:54.852Z,34.07
2022-08-11T13:49:58.789Z,34.51
2022-08-11T14:00:15.839Z,34.87
2022-08-11T14:10:33.996Z,34.93
2022-08-11T14:20:59.626Z,35.40
2022-08-11T14:31:06.207Z,34.91
2022-08-11T14:41:29.086Z,35.70
2022-08-11T14:51:34.288Z,35.61
2022-08-11T15:01:58.359Z,35.73
2022-08-11T15:12:32.552Z,34.28
2022-08-11T15:22:56.147Z,32.47
2022-08-11T15:33:29.229Z,32.19
2022-08-11T15:44:08.395Z,31.61
2022-08-11T15:54:20.316Z,31.26
2022-08-11T16:04:27.533Z,30.96
2022-08-11T16:14:55.425Z,30.64
2022-08-11T16:27:03.507Z,30.32
2022-08-11T16:35:45.209Z,30.30
2022-08-11T16:46:08.025Z,30.21
2022-08-11T16:56:17.503Z,29.87
2022-08-11T17:06:40.804Z,29.75
2022-08-11T17:16:49.595Z,29.44
2022-08-11T17:26:59.035Z,29.07
2022-08-11T17:37:04.035Z,28.81
2022-08-11T17:47:25.956Z,28.44
2022-08-11T17:57:49.225Z,28.09
2022-08-11T18:08:13.231Z,27.71
2022-08-11T18:18:34.453Z,27.38
2022-08-11T18:29:02.112Z,26.92
2022-08-11T18:39:28.627Z,26.53
2022-08-11T18:50:03.566Z,26.18
2022-08-11T19:00:27.120Z,25.49
2022-08-11T19:10:48.787Z,24.79
2022-08-11T19:21:12.349Z,24.36
2022-08-11T19:31:34.533Z,23.93
2022-08-11T19:41:58.006Z,23.39
2022-08-11T19:52:20.782Z,22.93
2022-08-11T20:02:42.417Z,22.49
2022-08-11T20:13:05.070Z,22.07
2022-08-11T20:23:28.909Z,21.72
2022-08-11T20:33:50.888Z,21.34
2022-08-11T20:44:16.547Z,20.94
2022-08-11T20:54:43.583Z,20.58
2022-08-11T21:05:05.272Z,20.23
2022-08-11T21:15:47.197Z,19.93
2022-08-11T21:26:15.687Z,19.62
2022-08-11T21:36:38.741Z,19.37
2022-08-11T21:47:01.061Z,19.20
2022-08-11T21:57:25.030Z,19.05
2022-08-11T22:07:47.483Z,19.00
2022-08-11T22:18:08.429Z,19.00
2022-08-11T22:28:29.492Z,19.03
2022-08-11T22:38:52.676Z,19.00
2022-08-11T22:49:14.914Z,18.92
2022-08-11T22:59:38.780Z,18.79
2022-08-11T23:09:59.925Z,18.69
2022-08-11T23:20:35.010Z,18.51
2022-08-11T23:31:01.081Z,18.34
2022-08-11T23:41:23.304Z,18.21
2022-08-11T23:51:45.685Z,18.08
